Time;durP1;ratioP1;P1;durP2;ratioP2;P2;SDS_P1;SDS_P2;PMS_P1;PMS_P2;Temp;Humidity;BMP_temperature;BMP_pressure;BME280_temperature;BME280_humidity;BME280_pressure;Samples;Min_cycle;Max_cycle;Signal;HPM_P1;HPM_P2
2021/08/02 00:02:05;;;;;;;11.40;7.07;;;14.30;99.90;;;;;;3571951;40;20029;-59
2021/08/02 00:04:30;;;;;;;12.57;7.00;;;14.20;99.90;;;;;;3571519;40;20423;-60
2021/08/02 00:06:56;;;;;;;11.55;7.07;;;14.30;99.90;;;;;;3571292;40;20031;-59
2021/08/02 00:09:22;;;;;;;11.68;7.35;;;14.30;99.90;;;;;;3571013;40;20037;-60
2021/08/02 00:11:47;;;;;;;12.60;7.38;;;14.20;99.90;;;;;;3571343;40;20043;-60
2021/08/02 00:14:12;;;;;;;13.10;7.20;;;14.30;99.90;;;;;;3571192;40;20033;-59
2021/08/02 00:16:38;;;;;;;16.40;6.60;;;14.30;99.90;;;;;;3571333;40;20318;-59
2021/08/02 00:19:04;;;;;;;14.20;8.13;;;14.30;99.90;;;;;;3571416;40;20048;-59
2021/08/02 00:21:29;;;;;;;13.93;7.75;;;14.30;99.90;;;;;;3578294;40;20040;-59
2021/08/02 00:23:55;;;;;;;12.60;7.95;;;14.30;99.90;;;;;;3570785;40;20048;-60
2021/08/02 00:26:20;;;;;;;15.15;6.82;;;14.60;99.90;;;;;;3571685;40;20049;-59
2021/08/02 00:28:46;;;;;;;11.10;7.05;;;;;;;;;;3570276;40;20037;-58
2021/08/02 00:31:12;;;;;;;13.48;7.13;;;;;;;;;;3569873;40;20452;-59
2021/08/02 00:33:38;;;;;;;12.40;8.25;;;;;;;;;;3570340;40;20052;-59
2021/08/02 00:36:04;;;;;;;10.55;7.13;;;;;;;;;;3571276;40;20045;-60
2021/08/02 00:38:30;;;;;;;17.15;8.68;;;;;;;;;;3571835;40;20792;-60
2021/08/02 00:40:56;;;;;;;12.32;7.65;;;;;;;;;;3571482;40;20069;-59
2021/08/02 00:43:22;;;;;;;14.27;7.68;;;;;;;;;;3571929;40;20041;-59
2021/08/02 00:45:48;;;;;;;12.82;7.93;;;;;;;;;;3571709;40;20353;-60
2021/08/02 00:48:14;;;;;;;14.65;8.45;;;;;;;;;;3578821;40;20037;-59
2021/08/02 00:50:40;;;;;;;18.42;9.25;;;;;;;;;;3569957;40;20171;-59
2021/08/02 00:53:07;;;;;;;11.68;7.65;;;;;;;;;;3578841;40;20056;-59
2021/08/02 00:55:33;;;;;;;13.60;8.30;;;14.90;99.90;;;;;;3578424;40;20296;-59
2021/08/02 00:57:59;;;;;;;10.43;7.40;;;14.60;99.90;;;;;;3579134;40;20049;-59
2021/08/02 01:00:25;;;;;;;13.30;8.13;;;14.70;99.90;;;;;;3570585;40;20322;-59
2021/08/02 01:02:54;;;;;;;15.50;8.05;;;15.40;99.90;;;;;;3571781;40;20044;-59
2021/08/02 01:05:20;;;;;;;11.43;7.35;;;14.00;99.90;;;;;;3571854;40;20151;-60
2021/08/02 01:07:46;;;;;;;11.02;7.50;;;14.20;99.90;;;;;;3571451;40;20393;-63
2021/08/02 01:10:12;;;;;;;11.25;7.68;;;14.80;99.90;;;;;;3571516;40;20037;-59
2021/08/02 01:12:37;;;;;;;13.23;7.57;;;14.70;99.90;;;;;;3568920;40;20037;-59
2021/08/02 01:15:05;;;;;;;10.85;7.28;;;14.80;99.90;;;;;;3578437;40;20074;-60
2021/08/02 01:17:30;;;;;;;13.95;7.55;;;14.80;99.90;;;;;;3578756;40;20033;-62
2021/08/02 01:20:00;;;;;;;10.20;6.88;;;14.10;99.90;;;;;;3569126;40;20392;-59
2021/08/02 01:22:26;;;;;;;13.32;7.97;;;14.90;99.90;;;;;;3571902;40;20021;-59
2021/08/02 01:24:52;;;;;;;11.98;7.22;;;14.70;99.90;;;;;;3571399;40;20033;-59
2021/08/02 01:27:20;;;;;;;13.77;8.20;;;;;;;;;;3571423;40;20417;-60
2021/08/02 01:29:45;;;;;;;14.57;8.63;;;14.70;99.90;;;;;;3569837;40;20045;-59
2021/08/02 01:32:11;;;;;;;13.10;7.55;;;14.90;99.90;;;;;;3571175;40;20122;-59
2021/08/02 01:34:36;;;;;;;13.05;8.10;;;14.80;99.90;;;;;;3578385;40;20052;-60
2021/08/02 01:37:03;;;;;;;14.65;7.88;;;14.80;99.90;;;;;;3568848;40;20057;-60
2021/08/02 01:39:30;;;;;;;11.23;7.53;;;14.80;99.90;;;;;;3570895;40;20415;-60
2021/08/02 01:41:56;;;;;;;15.35;8.57;;;14.90;99.90;;;;;;3570819;40;20084;-60
2021/08/02 01:44:21;;;;;;;12.07;8.18;;;15.00;99.90;;;;;;3570082;40;20039;-60
2021/08/02 01:46:47;;;;;;;15.73;8.02;;;14.90;99.90;;;;;;3578259;40;20322;-59
2021/08/02 01:49:13;;;;;;;11.10;7.40;;;14.90;99.90;;;;;;3570133;40;20849;-59
2021/08/02 01:51:38;;;;;;;11.20;7.65;;;14.90;99.90;;;;;;3571097;40;20129;-59
2021/08/02 01:54:04;;;;;;;19.25;8.23;;;14.90;99.90;;;;;;3569834;40;20043;-59
2021/08/02 01:56:30;;;;;;;14.13;8.07;;;14.90;99.90;;;;;;3578462;40;20021;-60
2021/08/02 01:58:58;;;;;;;12.15;7.95;;;14.90;99.90;;;;;;3571033;40;20039;-59
2021/08/02 02:01:32;;;;;;;12.77;7.77;;;14.90;99.90;;;;;;3570914;40;20045;-59
2021/08/02 02:03:58;;;;;;;13.70;8.60;;;15.00;99.90;;;;;;3570752;40;20263;-59
2021/08/02 02:06:28;;;;;;;11.85;7.47;;;14.90;99.90;;;;;;3569970;40;20037;-59
2021/08/02 02:08:54;;;;;;;15.05;7.93;;;14.90;99.90;;;;;;3570540;40;20166;-59
2021/08/02 02:11:26;;;;;;;12.30;6.97;;;15.40;99.90;;;;;;3571232;40;20033;-59
2021/08/02 02:13:57;;;;;;;10.52;7.00;;;15.00;99.90;;;;;;3569960;40;20037;-59
2021/08/02 02:16:24;;;;;;;11.75;7.78;;;15.00;99.90;;;;;;3571062;40;20618;-59
2021/08/02 02:18:50;;;;;;;18.48;7.78;;;15.50;99.90;;;;;;3571149;40;20045;-58
2021/08/02 02:21:17;;;;;;;14.77;7.72;;;15.00;99.90;;;;;;3570529;40;20126;-59
2021/08/02 02:23:44;;;;;;;15.45;7.93;;;14.70;99.90;;;;;;3570400;40;20069;-59
2021/08/02 02:26:09;;;;;;;17.88;8.50;;;15.30;99.90;;;;;;3571998;40;20033;-59
2021/08/02 02:28:36;;;;;;;11.73;6.97;;;15.00;99.90;;;;;;3571891;40;20033;-58
2021/08/02 02:31:10;;;;;;;13.25;8.05;;;14.60;99.90;;;;;;3570386;40;20041;-59
2021/08/02 02:33:36;;;;;;;14.98;7.80;;;15.50;99.90;;;;;;3572907;40;20060;-59
2021/08/02 02:36:02;;;;;;;13.55;8.02;;;15.50;99.90;;;;;;3570615;40;20419;-59
2021/08/02 02:38:27;;;;;;;20.35;8.68;;;15.20;99.90;;;;;;3570932;40;20122;-59
2021/08/02 02:40:54;;;;;;;16.50;8.95;;;15.00;99.90;;;;;;3570493;40;20070;-59
2021/08/02 02:43:20;;;;;;;18.45;7.95;;;15.00;99.90;;;;;;3570523;40;20061;-58
2021/08/02 02:45:46;;;;;;;12.93;7.63;;;15.00;99.90;;;;;;3572164;40;20022;-59
2021/08/02 02:48:11;;;;;;;16.33;7.82;;;15.00;99.90;;;;;;3570143;40;20430;-59
2021/08/02 02:50:37;;;;;;;15.85;8.52;;;15.00;99.90;;;;;;3571767;40;20033;-59
2021/08/02 02:53:03;;;;;;;11.48;7.13;;;15.30;99.90;;;;;;3570432;40;20048;-59
2021/08/02 02:55:29;;;;;;;13.57;7.90;;;15.00;99.90;;;;;;3572144;40;20053;-59
2021/08/02 02:57:56;;;;;;;13.40;7.07;;;15.00;99.90;;;;;;3571979;40;20069;-59
2021/08/02 03:00:21;;;;;;;18.73;7.93;;;15.00;99.90;;;;;;3579315;40;20118;-59
2021/08/02 03:02:47;;;;;;;16.35;7.88;;;14.70;99.90;;;;;;3570947;40;20742;-59
2021/08/02 03:05:13;;;;;;;9.07;6.00;;;15.00;99.90;;;;;;3568564;40;20127;-60
2021/08/02 03:07:39;;;;;;;13.50;7.32;;;14.90;99.90;;;;;;3578095;40;20497;-59
2021/08/02 03:10:07;;;;;;;16.23;7.05;;;15.00;99.90;;;;;;3579109;40;20652;-59
2021/08/02 03:12:34;;;;;;;16.40;7.57;;;14.90;99.90;;;;;;3571951;40;20031;-59
2021/08/02 03:14:59;;;;;;;12.88;5.85;;;14.90;99.90;;;;;;3570783;40;20037;-59
2021/08/02 03:17:25;;;;;;;13.98;6.15;;;14.90;99.90;;;;;;3571362;40;20395;-59
2021/08/02 03:19:50;;;;;;;11.23;6.30;;;14.90;99.90;;;;;;3570009;40;20044;-59
2021/08/02 03:22:16;;;;;;;12.52;6.63;;;15.00;99.90;;;;;;3571241;40;20095;-59
2021/08/02 03:24:41;;;;;;;9.13;5.88;;;14.80;99.90;;;;;;3572385;40;20037;-59
2021/08/02 03:27:07;;;;;;;12.40;6.07;;;14.80;99.90;;;;;;3571961;40;20068;-59
2021/08/02 03:29:32;;;;;;;10.05;5.22;;;14.80;99.90;;;;;;3572474;40;20826;-59
2021/08/02 03:31:58;;;;;;;8.95;5.68;;;14.80;99.90;;;;;;3571605;40;20037;-60
2021/08/02 03:34:23;;;;;;;12.10;6.20;;;14.80;99.90;;;;;;3569631;40;20075;-59
2021/08/02 03:36:49;;;;;;;15.95;6.28;;;14.80;99.90;;;;;;3579060;40;20767;-59
2021/08/02 03:39:15;;;;;;;9.30;5.75;;;14.80;99.90;;;;;;3569867;40;20025;-59
2021/08/02 03:41:41;;;;;;;9.80;5.30;;;14.80;99.90;;;;;;3571781;40;20025;-60
2021/08/02 03:44:07;;;;;;;8.50;5.88;;;14.70;99.90;;;;;;3570891;40;20395;-59
2021/08/02 03:46:32;;;;;;;8.55;5.07;;;14.70;99.90;;;;;;3570079;40;20072;-59
2021/08/02 03:48:58;;;;;;;11.23;5.68;;;14.80;99.90;;;;;;3570693;40;20045;-60
2021/08/02 03:51:24;;;;;;;11.38;5.82;;;14.80;99.90;;;;;;3570397;40;20029;-59
2021/08/02 03:53:49;;;;;;;8.82;5.40;;;14.70;99.90;;;;;;3570107;40;20032;-59
2021/08/02 03:56:15;;;;;;;12.40;5.25;;;14.70;99.90;;;;;;3570840;40;20138;-59
2021/08/02 03:58:40;;;;;;;9.50;5.57;;;14.80;99.90;;;;;;3572163;40;20145;-59
2021/08/02 04:01:06;;;;;;;10.38;5.85;;;14.80;99.90;;;;;;3570430;40;20033;-59
2021/08/02 04:03:32;;;;;;;9.27;5.85;;;14.80;99.90;;;;;;3571873;40;20041;-59
2021/08/02 04:05:59;;;;;;;11.15;5.40;;;14.80;99.90;;;;;;3569873;40;20035;-59
2021/08/02 04:08:24;;;;;;;15.45;5.57;;;14.80;99.90;;;;;;3577787;40;20025;-59
2021/08/02 04:10:50;;;;;;;13.18;5.28;;;14.70;99.90;;;;;;3571850;40;20429;-59
2021/08/02 04:13:17;;;;;;;9.80;5.20;;;14.80;99.90;;;;;;3572172;40;20036;-59
2021/08/02 04:15:43;;;;;;;9.88;5.60;;;14.80;99.90;;;;;;3568867;40;20375;-59
2021/08/02 04:18:09;;;;;;;5.25;4.57;;;;;;;;;;3570336;40;20040;-59
2021/08/02 04:20:34;;;;;;;11.43;5.43;;;15.20;99.90;;;;;;3569818;40;20041;-59
2021/08/02 04:23:00;;;;;;;9.55;5.03;;;15.20;99.90;;;;;;3570862;40;20723;-59
2021/08/02 04:25:25;;;;;;;11.23;5.10;;;14.70;99.90;;;;;;3572276;40;20049;-59
2021/08/02 04:27:51;;;;;;;6.50;4.47;;;14.50;99.90;;;;;;3571759;40;20072;-59
2021/08/02 04:30:17;;;;;;;8.55;4.30;;;14.50;99.90;;;;;;3570870;40;20037;-59
2021/08/02 04:32:42;;;;;;;10.52;4.22;;;14.50;99.90;;;;;;3569441;40;20037;-59
2021/08/02 04:35:08;;;;;;;12.73;5.20;;;14.40;99.90;;;;;;3570685;40;20414;-59
2021/08/02 04:37:33;;;;;;;7.47;4.50;;;14.30;99.90;;;;;;3568483;40;20048;-59
2021/08/02 04:39:59;;;;;;;7.78;5.53;;;14.30;99.90;;;;;;3569336;40;20082;-59
2021/08/02 04:42:24;;;;;;;16.27;5.65;;;14.30;99.90;;;;;;3570767;40;20642;-59
2021/08/02 04:44:50;;;;;;;8.98;5.45;;;14.30;99.90;;;;;;3568989;40;20301;-59
2021/08/02 04:47:15;;;;;;;10.40;5.43;;;14.30;99.90;;;;;;3571496;40;20783;-59
2021/08/02 04:49:41;;;;;;;15.52;5.90;;;14.40;99.90;;;;;;3570626;40;20447;-59
2021/08/02 04:52:06;;;;;;;11.80;6.07;;;14.40;99.90;;;;;;3570108;40;20029;-59
2021/08/02 04:54:32;;;;;;;10.32;5.95;;;14.40;99.90;;;;;;3570090;40;20425;-59
2021/08/02 04:56:57;;;;;;;17.42;7.18;;;14.40;99.90;;;;;;3568819;40;20035;-59
2021/08/02 04:59:23;;;;;;;13.07;6.68;;;14.40;99.90;;;;;;3568320;40;20029;-59
2021/08/02 05:01:48;;;;;;;14.05;6.68;;;15.20;99.90;;;;;;3559595;40;20114;-59
2021/08/02 05:04:14;;;;;;;16.63;7.88;;;14.70;99.90;;;;;;3569880;40;20100;-59
2021/08/02 05:06:39;;;;;;;17.17;7.20;;;14.90;99.90;;;;;;3569885;40;20342;-59
2021/08/02 05:09:05;;;;;;;20.85;8.65;;;14.90;99.90;;;;;;3569205;40;20318;-59
2021/08/02 05:11:30;;;;;;;19.20;9.55;;;15.00;99.90;;;;;;3569068;40;20029;-59
2021/08/02 05:13:56;;;;;;;19.35;7.25;;;15.20;99.90;;;;;;3568478;40;20033;-60
2021/08/02 05:16:21;;;;;;;17.00;8.00;;;15.10;99.90;;;;;;3570167;40;20051;-59
2021/08/02 05:18:47;;;;;;;22.05;8.55;;;15.20;99.90;;;;;;3574933;40;20422;-59
2021/08/02 05:21:12;;;;;;;14.73;6.75;;;15.10;99.90;;;;;;3566792;40;20045;-59
2021/08/02 05:23:38;;;;;;;13.15;7.15;;;15.10;99.90;;;;;;3567669;40;20514;-59
2021/08/02 05:26:03;;;;;;;16.63;7.32;;;15.00;99.90;;;;;;3570224;40;20025;-58
2021/08/02 05:28:29;;;;;;;17.75;8.05;;;15.00;99.90;;;;;;3569999;40;20049;-59
2021/08/02 05:30:54;;;;;;;13.10;8.15;;;15.10;99.90;;;;;;3570126;40;20045;-60
2021/08/02 05:33:19;;;;;;;15.70;8.27;;;15.30;99.90;;;;;;3569982;40;20587;-59
2021/08/02 05:35:45;;;;;;;12.07;7.70;;;15.50;99.90;;;;;;3568340;40;20044;-59
2021/08/02 05:38:10;;;;;;;11.82;7.25;;;15.50;99.90;;;;;;3571188;40;20060;-59
2021/08/02 05:40:36;;;;;;;10.52;7.28;;;15.60;99.90;;;;;;3569465;40;20092;-59
2021/08/02 05:43:01;;;;;;;10.43;6.90;;;15.70;99.90;;;;;;3570931;40;20060;-59
2021/08/02 05:45:27;;;;;;;9.73;6.60;;;15.60;99.90;;;;;;3567549;40;20347;-58
2021/08/02 05:47:53;;;;;;;9.00;5.35;;;15.70;99.90;;;;;;3569499;40;20087;-59
2021/08/02 05:50:18;;;;;;;8.27;5.13;;;15.70;99.90;;;;;;3569670;40;20115;-59
2021/08/02 05:52:43;;;;;;;7.63;4.75;;;15.70;99.90;;;;;;3568803;40;20025;-59
2021/08/02 05:55:09;;;;;;;9.77;4.40;;;15.50;99.90;;;;;;3577588;40;20033;-59
2021/08/02 05:57:34;;;;;;;6.30;4.57;;;15.60;99.90;;;;;;3570037;40;20037;-59
2021/08/02 06:00:00;;;;;;;10.93;5.00;;;15.50;99.90;;;;;;3571665;40;20097;-59
2021/08/02 06:02:26;;;;;;;11.45;4.93;;;15.60;99.90;;;;;;3571291;40;20095;-59
2021/08/02 06:04:51;;;;;;;8.52;4.40;;;15.70;99.90;;;;;;3572192;40;20804;-59
2021/08/02 06:07:17;;;;;;;8.23;4.72;;;15.80;99.90;;;;;;3571562;40;20037;-59
2021/08/02 06:09:42;;;;;;;8.65;4.30;;;15.80;99.90;;;;;;3569014;40;20670;-59
2021/08/02 06:12:09;;;;;;;8.45;4.30;;;15.70;99.90;;;;;;3570606;40;20056;-59
2021/08/02 06:14:35;;;;;;;7.32;4.55;;;15.90;99.90;;;;;;3569781;40;20852;-59
2021/08/02 06:17:00;;;;;;;11.02;4.63;;;15.90;99.90;;;;;;3570527;40;20033;-59
2021/08/02 06:19:26;;;;;;;6.80;4.00;;;16.00;99.90;;;;;;3570970;40;20110;-59
2021/08/02 06:21:51;;;;;;;6.30;3.63;;;16.10;99.90;;;;;;3570443;40;20037;-59
2021/08/02 06:24:17;;;;;;;6.97;3.47;;;16.10;99.90;;;;;;3571011;40;20638;-59
2021/08/02 06:26:42;;;;;;;8.85;3.25;;;16.20;99.90;;;;;;3570805;40;20068;-59
2021/08/02 06:29:08;;;;;;;17.58;3.20;;;16.20;99.90;;;;;;3567273;40;20529;-59
2021/08/02 06:31:33;;;;;;;4.68;2.80;;;16.20;99.90;;;;;;3571427;40;20126;-60
2021/08/02 06:33:59;;;;;;;9.68;2.42;;;16.10;99.90;;;;;;3575913;40;20044;-62
2021/08/02 06:36:24;;;;;;;5.07;2.97;;;16.00;99.90;;;;;;3569988;40;20021;-59
2021/08/02 06:38:50;;;;;;;4.68;2.47;;;15.90;99.90;;;;;;3577796;40;20033;-60
2021/08/02 06:41:15;;;;;;;6.10;2.20;;;15.90;99.90;;;;;;3570277;40;20040;-59
2021/08/02 06:43:41;;;;;;;8.63;2.70;;;15.70;99.90;;;;;;3569858;40;20333;-60
2021/08/02 06:46:07;;;;;;;5.30;2.47;;;15.70;99.90;;;;;;3568908;40;20021;-60
2021/08/02 06:48:32;;;;;;;7.05;2.42;;;15.70;99.90;;;;;;3569907;40;20383;-59
2021/08/02 06:50:58;;;;;;;11.50;2.58;;;15.60;99.90;;;;;;3569587;40;20040;-60
2021/08/02 06:53:23;;;;;;;4.43;2.58;;;15.50;99.90;;;;;;3569507;40;20049;-60
2021/08/02 06:55:49;;;;;;;6.97;2.58;;;15.40;99.90;;;;;;3569053;40;20033;-61
2021/08/02 06:58:14;;;;;;;5.68;3.10;;;15.50;99.90;;;;;;3570561;40;20075;-59
2021/08/02 07:00:40;;;;;;;5.75;3.00;;;15.50;99.90;;;;;;3570806;40;20041;-59
2021/08/02 07:03:05;;;;;;;5.78;2.90;;;15.40;99.90;;;;;;3570242;40;20037;-59
2021/08/02 07:05:31;;;;;;;8.73;3.17;;;15.70;99.90;;;;;;3569737;40;20042;-63
2021/08/02 07:07:57;;;;;;;7.28;3.03;;;15.60;99.90;;;;;;3563958;40;20033;-65
2021/08/02 07:10:23;;;;;;;10.38;4.15;;;15.70;99.90;;;;;;3567717;40;20257;-65
2021/08/02 07:12:48;;;;;;;21.80;7.63;;;15.80;99.90;;;;;;3569807;40;20029;-65
2021/08/02 07:15:14;;;;;;;8.20;4.10;;;15.90;99.90;;;;;;3569226;40;20028;-65
2021/08/02 07:17:39;;;;;;;7.80;3.53;;;16.00;99.90;;;;;;3570495;40;20032;-65
2021/08/02 07:20:05;;;;;;;9.38;4.25;;;16.20;99.90;;;;;;3577746;40;20036;-65
2021/08/02 07:22:30;;;;;;;26.17;8.02;;;16.30;99.90;;;;;;3570806;40;20061;-65
2021/08/02 07:24:56;;;;;;;7.95;3.10;;;16.50;99.90;;;;;;3570901;40;20048;-65
2021/08/02 07:27:21;;;;;;;11.35;2.58;;;16.60;99.90;;;;;;3569999;40;20049;-64
2021/08/02 07:29:47;;;;;;;10.00;2.92;;;16.60;99.90;;;;;;3570959;40;20426;-65
2021/08/02 07:32:12;;;;;;;5.50;2.17;;;16.70;99.90;;;;;;3570392;40;20036;-65
2021/08/02 07:34:38;;;;;;;2.80;1.65;;;16.70;99.90;;;;;;3571168;40;20092;-65
2021/08/02 07:37:03;;;;;;;7.03;3.28;;;16.60;99.90;;;;;;3571468;40;20029;-65
2021/08/02 07:39:29;;;;;;;6.15;2.20;;;16.60;99.90;;;;;;3571263;40;20047;-65
2021/08/02 07:41:54;;;;;;;5.65;1.48;;;16.40;99.90;;;;;;3577422;40;20033;-64
2021/08/02 07:44:20;;;;;;;8.68;1.85;;;;;;;;;;3571204;40;20033;-64
2021/08/02 07:46:46;;;;;;;14.20;2.67;;;17.10;99.90;;;;;;3571602;40;20339;-64
2021/08/02 07:49:11;;;;;;;3.75;1.30;;;17.30;99.90;;;;;;3571264;40;20406;-65
2021/08/02 07:51:37;;;;;;;2.88;1.30;;;17.30;99.90;;;;;;3569825;40;20044;-64
2021/08/02 07:54:03;;;;;;;3.67;1.40;;;17.30;99.90;;;;;;3571198;40;20085;-64
2021/08/02 07:56:29;;;;;;;5.97;1.30;;;17.30;99.90;;;;;;3570026;40;20388;-64
2021/08/02 07:58:54;;;;;;;6.05;1.65;;;17.40;99.90;;;;;;3571222;40;20084;-65
2021/08/02 08:01:20;;;;;;;2.78;1.25;;;17.20;99.90;;;;;;3568941;40;20402;-64
2021/08/02 08:03:46;;;;;;;6.95;1.67;;;17.10;99.90;;;;;;3577322;40;20037;-64
2021/08/02 08:06:11;;;;;;;5.57;1.42;;;16.90;99.90;;;;;;3567351;40;20033;-65
2021/08/02 08:08:37;;;;;;;6.97;1.85;;;16.90;99.90;;;;;;3570605;40;20029;-65
2021/08/02 08:11:02;;;;;;;3.92;1.38;;;17.40;99.90;;;;;;3569274;40;20647;-64
2021/08/02 08:13:28;;;;;;;6.82;2.05;;;17.50;99.90;;;;;;3569582;40;20845;-64
2021/08/02 08:15:53;;;;;;;6.90;0.85;;;17.80;99.90;;;;;;3569093;40;20505;-65
2021/08/02 08:18:18;;;;;;;3.80;1.00;;;17.80;99.90;;;;;;3569945;40;20095;-64
2021/08/02 08:20:44;;;;;;;3.55;1.10;;;17.90;99.90;;;;;;3567267;40;20045;-64
2021/08/02 08:23:10;;;;;;;4.57;1.40;;;18.30;99.90;;;;;;3567752;40;20029;-64
2021/08/02 08:25:35;;;;;;;2.83;1.20;;;18.50;99.90;;;;;;3566510;40;20119;-64
2021/08/02 08:28:01;;;;;;;8.18;1.98;;;18.60;99.90;;;;;;3576449;40;20024;-64
2021/08/02 08:30:27;;;;;;;20.25;8.68;;;18.60;99.90;;;;;;3568533;40;20033;-64
2021/08/02 08:32:52;;;;;;;9.80;2.80;;;18.80;99.90;;;;;;3569355;40;20033;-63
2021/08/02 08:35:18;;;;;;;3.78;1.70;;;18.80;99.90;;;;;;3568897;40;20073;-63
2021/08/02 08:37:44;;;;;;;2.47;0.82;;;;;;;;;;3571684;40;20449;-63
2021/08/02 08:40:10;;;;;;;4.05;1.20;;;19.00;99.90;;;;;;3571119;40;20053;-63
2021/08/02 08:42:37;;;;;;;4.40;1.08;;;;;;;;;;3568854;40;20086;-63
2021/08/02 08:45:03;;;;;;;4.22;1.20;;;;;;;;;;3571058;40;20080;-63
2021/08/02 08:47:28;;;;;;;4.78;0.90;;;19.20;99.90;;;;;;3573082;40;20044;-63
2021/08/02 08:49:54;;;;;;;3.50;1.35;;;19.60;99.90;;;;;;3570951;40;20094;-63
2021/08/02 08:52:19;;;;;;;5.65;1.40;;;20.10;99.90;;;;;;3569672;40;20018;-63
2021/08/02 08:54:45;;;;;;;5.57;1.35;;;20.50;99.90;;;;;;3570243;40;20028;-63
2021/08/02 08:57:11;;;;;;;7.15;2.22;;;20.60;99.90;;;;;;3571012;40;20053;-63
2021/08/02 08:59:37;;;;;;;3.33;1.10;;;;;;;;;;3569533;40;20121;-63
2021/08/02 09:02:03;;;;;;;8.30;1.88;;;;;;;;;;3569038;40;20037;-63
2021/08/02 09:04:29;;;;;;;2.60;0.93;;;;;;;;;;3569482;40;20063;-63
2021/08/02 09:06:55;;;;;;;2.90;1.02;;;21.20;99.90;;;;;;3570145;40;20030;-63
2021/08/02 09:09:21;;;;;;;5.20;1.77;;;;;;;;;;3568018;40;20038;-63
2021/08/02 09:11:46;;;;;;;5.38;1.08;;;21.70;98.70;;;;;;3568595;40;20879;-63
2021/08/02 09:14:13;;;;;;;8.75;3.28;;;;;;;;;;3565759;40;20279;-63
2021/08/02 09:16:39;;;;;;;2.38;1.10;;;20.90;97.50;;;;;;3566908;40;20074;-63
2021/08/02 09:19:07;;;;;;;6.60;1.27;;;;;;;;;;3571292;40;20037;-63
2021/08/02 09:21:32;;;;;;;1.33;0.77;;;20.90;99.90;;;;;;3576673;40;20292;-64
2021/08/02 09:23:59;;;;;;;4.90;0.85;;;20.70;99.90;;;;;;3576142;40;20044;-63
2021/08/02 09:26:25;;;;;;;3.35;0.82;;;20.80;97.80;;;;;;3575808;40;20029;-64
2021/08/02 09:28:51;;;;;;;2.42;1.00;;;20.80;97.40;;;;;;3576814;40;20355;-64
2021/08/02 09:31:16;;;;;;;8.48;1.40;;;21.00;98.10;;;;;;3569845;40;20033;-64
2021/08/02 09:33:43;;;;;;;5.18;1.00;;;;;;;;;;3570808;40;20091;-64
2021/08/02 09:36:08;;;;;;;3.03;1.23;;;20.60;98.00;;;;;;3570919;40;20041;-64
2021/08/02 09:38:34;;;;;;;2.47;0.93;;;;;;;;;;3572364;40;20041;-64
2021/08/02 09:41:00;;;;;;;6.40;0.80;;;;;;;;;;3570193;40;20154;-64
2021/08/02 09:43:26;;;;;;;2.55;1.00;;;;;;;;;;3569555;40;20029;-64
2021/08/02 09:45:52;;;;;;;1.20;0.70;;;;;;;;;;3568437;40;20123;-64
2021/08/02 09:48:19;;;;;;;4.40;1.13;;;;;;;;;;3570003;40;20037;-64
2021/08/02 09:50:44;;;;;;;3.03;0.80;;;20.10;99.20;;;;;;3571381;40;20028;-64
2021/08/02 09:53:10;;;;;;;5.68;1.10;;;19.40;99.90;;;;;;3570400;40;20400;-63
2021/08/02 09:55:36;;;;;;;2.90;0.88;;;;;;;;;;3577123;40;20122;-64
2021/08/02 09:58:02;;;;;;;4.18;1.00;;;;;;;;;;3571335;40;20657;-64
2021/08/02 10:00:28;;;;;;;2.95;0.93;;;;;;;;;;3570591;40;20126;-64
2021/08/02 10:02:54;;;;;;;3.65;0.90;;;;;;;;;;3572513;40;20044;-67
2021/08/02 10:05:20;;;;;;;5.32;1.52;;;;;;;;;;3572095;40;20025;-68
2021/08/02 10:07:46;;;;;;;4.43;1.73;;;;;;;;;;3571219;40;20040;-68
2021/08/02 10:10:12;;;;;;;8.18;3.22;;;;;;;;;;3569976;40;20087;-68
2021/08/02 10:12:38;;;;;;;5.65;2.45;;;;;;;;;;3567972;40;20767;-68
2021/08/02 10:15:04;;;;;;;4.80;1.30;;;;;;;;;;3570996;40;20776;-68
2021/08/02 10:17:30;;;;;;;6.93;1.05;;;;;;;;;;3570740;40;20053;-68
2021/08/02 10:19:56;;;;;;;15.18;6.10;;;21.20;98.60;;;;;;3571582;40;20025;-68
2021/08/02 10:22:21;;;;;;;5.88;1.20;;;21.20;98.60;;;;;;3571288;40;20029;-68
2021/08/02 10:24:47;;;;;;;4.47;1.20;;;22.30;97.30;;;;;;3576801;40;20054;-67
2021/08/02 10:27:13;;;;;;;3.30;0.90;;;;;;;;;;3569328;40;20040;-68
2021/08/02 10:29:38;;;;;;;5.40;1.08;;;22.30;95.80;;;;;;3569653;40;20041;-67
2021/08/02 10:32:04;;;;;;;3.65;1.45;;;;;;;;;;3571511;40;20126;-68
2021/08/02 10:34:30;;;;;;;3.92;1.20;;;22.40;96.90;;;;;;3570268;40;20128;-69
2021/08/02 10:36:56;;;;;;;4.30;1.27;;;21.60;94.50;;;;;;3570115;40;20037;-68
2021/08/02 10:39:21;;;;;;;3.92;1.17;;;21.70;94.90;;;;;;3570789;40;20045;-69
2021/08/02 10:41:47;;;;;;;5.35;1.17;;;;;;;;;;3569731;40;20061;-69
2021/08/02 10:44:14;;;;;;;4.68;1.05;;;;;;;;;;3570767;40;20369;-68
2021/08/02 10:46:40;;;;;;;4.35;1.50;;;;;;;;;;3571165;40;20041;-68
2021/08/02 10:49:05;;;;;;;4.55;1.20;;;22.50;92.40;;;;;;3571602;40;20047;-68
2021/08/02 10:51:31;;;;;;;4.82;1.58;;;22.50;93.20;;;;;;3569414;40;20103;-68
2021/08/02 10:53:56;;;;;;;3.80;1.23;;;22.30;94.50;;;;;;3569517;40;20064;-68
2021/08/02 10:56:22;;;;;;;6.65;2.60;;;;;;;;;;3568818;40;20028;-68
2021/08/02 10:58:48;;;;;;;3.50;1.10;;;22.40;93.10;;;;;;3570257;40;20033;-69
2021/08/02 11:01:14;;;;;;;3.45;1.00;;;;;;;;;;3569699;40;20041;-68
2021/08/02 11:03:40;;;;;;;6.53;1.10;;;22.40;93.10;;;;;;3575788;40;20060;-68
2021/08/02 11:06:06;;;;;;;3.33;1.10;;;;;;;;;;3575374;40;20036;-68
2021/08/02 11:08:35;;;;;;;2.75;0.98;;;;;;;;;;3569583;40;20057;-68
2021/08/02 11:11:02;;;;;;;2.47;1.20;;;22.80;92.70;;;;;;3568391;40;20035;-68
2021/08/02 11:13:28;;;;;;;1.40;0.90;;;;;;;;;;3571166;40;20045;-68
2021/08/02 11:15:54;;;;;;;2.75;1.00;;;;;;;;;;3567952;40;20090;-68
2021/08/02 11:18:20;;;;;;;3.22;1.00;;;22.60;91.40;;;;;;3570936;40;20561;-68
2021/08/02 11:20:46;;;;;;;1.40;0.90;;;;;;;;;;3571719;40;20076;-68
2021/08/02 11:23:12;;;;;;;2.20;1.15;;;;;;;;;;3571653;40;20556;-68
2021/08/02 11:25:37;;;;;;;3.60;1.00;;;;;;;;;;3571800;40;20060;-68
2021/08/02 11:28:03;;;;;;;2.92;1.10;;;22.80;90.70;;;;;;3570549;40;20666;-68
2021/08/02 11:30:28;;;;;;;6.63;1.10;;;22.90;92.10;;;;;;3571627;40;20048;-69
2021/08/02 11:32:56;;;;;;;4.50;0.98;;;22.80;89.30;;;;;;3572219;40;20421;-68
2021/08/02 11:35:21;;;;;;;3.17;1.02;;;23.20;90.90;;;;;;3579306;40;20036;-68
2021/08/02 11:37:50;;;;;;;3.17;1.40;;;23.80;90.80;;;;;;3572289;40;20331;-68
2021/08/02 11:40:15;;;;;;;2.95;0.85;;;24.30;87.90;;;;;;3557297;40;20045;-68
2021/08/02 11:42:42;;;;;;;7.13;2.60;;;24.10;86.10;;;;;;3561384;40;20780;-67
2021/08/02 11:45:08;;;;;;;9.25;4.15;;;24.20;85.60;;;;;;3562615;40;20061;-68
2021/08/02 11:47:35;;;;;;;2.63;1.40;;;24.40;82.00;;;;;;3561102;40;20037;-70
2021/08/02 11:50:00;;;;;;;4.47;1.20;;;24.60;86.60;;;;;;3561662;40;20111;-68
2021/08/02 11:52:26;;;;;;;5.32;2.35;;;24.50;77.50;;;;;;3568895;40;20068;-69
2021/08/02 11:54:51;;;;;;;2.08;1.00;;;24.10;81.80;;;;;;3562631;40;20025;-68
2021/08/02 11:57:17;;;;;;;9.10;4.15;;;24.00;82.70;;;;;;3561540;40;20077;-68
2021/08/02 11:59:42;;;;;;;4.70;1.50;;;23.50;81.10;;;;;;3569864;40;20514;-68
2021/08/02 12:02:08;;;;;;;5.05;1.98;;;23.60;82.50;;;;;;3562757;40;20134;-68
2021/08/02 12:04:33;;;;;;;7.68;2.00;;;24.00;87.70;;;;;;3563111;40;20032;-68
2021/08/02 12:06:59;;;;;;;5.07;1.35;;;24.40;80.80;;;;;;3562737;40;20306;-68
2021/08/02 12:09:24;;;;;;;2.72;1.10;;;24.90;81.10;;;;;;3569403;40;20034;-68
2021/08/02 12:11:50;;;;;;;3.17;1.20;;;25.60;80.30;;;;;;3561997;40;20288;-68
2021/08/02 12:14:15;;;;;;;4.70;1.20;;;25.90;78.10;;;;;;3561607;40;20405;-67
2021/08/02 12:16:41;;;;;;;3.60;1.27;;;25.80;74.40;;;;;;3561241;40;20037;-69
2021/08/02 12:19:06;;;;;;;4.05;1.40;;;25.80;74.10;;;;;;3561366;40;20636;-68
2021/08/02 12:21:33;;;;;;;5.43;1.17;;;25.60;73.70;;;;;;3561548;40;20046;-68
2021/08/02 12:23:59;;;;;;;2.33;1.02;;;;;;;;;;3560355;40;20069;-68
2021/08/02 12:26:24;;;;;;;6.18;1.15;;;26.00;73.30;;;;;;3560853;40;20045;-67
2021/08/02 12:28:50;;;;;;;3.78;1.05;;;;;;;;;;3562417;40;20139;-68
2021/08/02 12:31:16;;;;;;;4.43;1.35;;;26.10;74.80;;;;;;3561213;40;20030;-68
2021/08/02 12:33:41;;;;;;;2.45;1.58;;;26.20;74.70;;;;;;3560219;40;20031;-68
2021/08/02 12:36:07;;;;;;;6.30;1.25;;;;;;;;;;3561794;40;20030;-68
2021/08/02 12:38:33;;;;;;;3.88;1.40;;;26.20;71.80;;;;;;3563207;40;20049;-68
2021/08/02 12:40:58;;;;;;;6.35;2.33;;;26.20;74.60;;;;;;3560667;40;20061;-68
2021/08/02 12:43:24;;;;;;;2.35;1.20;;;26.10;71.70;;;;;;3562461;40;20038;-69
2021/08/02 12:45:49;;;;;;;4.25;1.80;;;25.80;71.00;;;;;;3563034;40;20026;-67
2021/08/02 12:48:16;;;;;;;2.50;0.90;;;25.90;71.40;;;;;;3562882;40;20123;-68
2021/08/02 12:50:42;;;;;;;1.65;1.00;;;25.90;70.30;;;;;;3561249;40;20085;-68
2021/08/02 12:53:07;;;;;;;1.70;1.00;;;25.60;70.60;;;;;;3563042;40;20415;-68